This is the latest recevied weather packets stored in our database for station/object KJ6BBX. If no packets are shown the sender has not sent any weather packets the latest 10 day(s).
| Time | Temp. | Humidity | Pressure | Rain* | Wind** | Luminosity | Snow |
|---|---|---|---|---|---|---|---|
| 1777841413 | 17.22° C | 76% | 1005.7 hPa | 0.25 mm | - | 96 W/m² | - |
| 1777840515 | 17.22° C | 77% | 1005.7 hPa | 0.25 mm | - | 108 W/m² | - |
| 1777839614 | 16.67° C | 80% | 1005.8 hPa | 0.25 mm | - | 152 W/m² | - |
| 1777838714 | 16.11° C | 81% | 1006.1 hPa | 0.25 mm | - | 127 W/m² | - |
| 1777837814 | 16.11° C | 85% | 1006.3 hPa | 0.25 mm | - | 98 W/m² | - |
| 1777836915 | 16.11° C | 86% | 1006.2 hPa | 0.25 mm | - | 120 W/m² | - |
| 1777836014 | 16.11° C | 87% | 1006 hPa | 0.25 mm | - | 158 W/m² | - |
| 1777835114 | 15° C | 89% | 1006.3 hPa | 0.25 mm | - | 184 W/m² | - |
| 1777834214 | 15° C | 91% | 1006.7 hPa | 0.25 mm | - | 225 W/m² | - |
| 1777833314 | 14.44° C | 93% | 1006.6 hPa | 0.25 mm | - | 228 W/m² | - |
| 1777832414 | 14.44° C | 95% | 1007 hPa | 0.25 mm | - | 115 W/m² | - |
| 1777831514 | 14.44° C | 95% | 1007.2 hPa | 0.25 mm | - | 97 W/m² | - |
| 1777830614 | 14.44° C | 95% | 1006.9 hPa | 0 mm | - | 62 W/m² | - |
| 1777829714 | 14.44° C | 94% | 1006.9 hPa | 0 mm | - | 63 W/m² | - |
| 1777828814 | 15° C | 93% | 1006.6 hPa | 0 mm | - | 54 W/m² | - |
| 1777827914 | 14.44° C | 95% | 1006.4 hPa | 0 mm | - | 101 W/m² | - |
| 1777827014 | 14.44° C | 96% | 1006.2 hPa | 0 mm | - | 94 W/m² | - |
| 1777826114 | 14.44° C | 96% | 1006.3 hPa | 0 mm | - | 73 W/m² | - |
| 1777825214 | 13.89° C | 96% | 1006.4 hPa | 0 mm | - | 65 W/m² | - |
| 1777824314 | 13.89° C | 96% | 1006.3 hPa | 0 mm | - | 54 W/m² | - |
| 1777823414 | 14.44° C | 96% | 1006.2 hPa | 0 mm | - | 32 W/m² | - |
| 1777822515 | 14.44° C | 96% | 1006.1 hPa | 0 mm | - | 19 W/m² | - |
| 1777821614 | 13.89° C | 95% | 1005.9 hPa | 0 mm | - | 25 W/m² | - |
| 1777820715 | 13.89° C | 94% | 1005.9 hPa | 0 mm | - | 19 W/m² | - |
| 1777819814 | 13.89° C | 92% | 1005.6 hPa | 0 mm | - | 18 W/m² | - |
* Rain since midnight (hover to see other rain measurements)
** Current wind speed in m/s (hover to see current wind gust speed)